メインページ
METAR-TAF:

METAR-TAF

空港 :

バミューダ諸島, バミューダ諸島

バミューダ国際空港

緯度: 32-22N, 経度: 064-41W, 海抜: 6m

現時点の気象観測

当レポートは1時間9分前の09:55(UTC)に作成
南/南西の風 13kt
気温 26°C
湿度 84%
気圧 1016 hPa
視程10km以上
高度1400ftの雲は散在している, 塔状積雲.
高度5300ftの千切れ雲あり
高度13000ftの千切れ雲あり

METAR: TXKF 200955Z 20013KT 9999 SCT014TCU BKN053 BKN130 26/23 Q1016 RMK TCU NW - N

時間: 08:04 (11:04 UTC)

予報

当レポートは5時間33分前の05:31(UTC)に作成
予報は20日の 06時(UTC)から 21日の 06時(UTC)まで有効
南/南西の風 12kt
視程10km以上
高度1200ftの雲はほとんどない
高度3000ftの雲は散在している
高度20000ftの千切れ雲あり
近辺でにわか雨
確率 40% :
20日の 06時(UTC)から 20日の 12時(UTC)まで一時的に
視程: 4800m
高度1400ftの千切れ雲あり
にわか雨
確率 30% :
20日の 06時(UTC)から 20日の 12時(UTC)まで一時的に
変向風 15kt、最大25ktの突風を伴う
視程: 3200m
高度900ftの千切れ雲あり, 積乱雲.
激しい雷雨, 雨
確率 30% :
20日の 12時(UTC)から 20日の 18時(UTC)まで一時的に
視程: 4800m
高度2000ftの千切れ雲あり
にわか雨

TAF: TXKF 200531Z 2006/2106 20012KT 9999 VCSH FEW012 SCT030 BKN200 PROB40 TEMPO 2006/2012 4800 SHRA BKN014 PROB30 TEMPO 2006/2012 VRB15G25KT 3200 TSRA BKN009CB PROB30 TEMPO 2012/2018 4800 SHRA BKN020

4,000以上の空港の気象観測と天気予報(METAR報とTAF報)

利用可能な観測所は地図上に黄色い丸と赤い丸で示す。

丸の上にカーソルを重ねると観測所名を参照できる。

次にクリックすると気象観測と天気予報を参照できる。

マップの切り替え:黒色「×」印の緑ボタンをクリックして拡大、「-」印の緑ボタンをクリックして縮小、緑色の三角印をクリックして隣りの地図に切り替え


METAR-TAF: